Aeroporto :
LOGIN :

Iscrizione | Disclaimer

   EN    FR    IT 

 










Sommario :    VFR   VFR Marginale   IFR   IFR Intensivo   IFR Molto Intensivo
Visibilità : 
Base nubi : 
>= 8 km
>= 3000ft
5 / 8 km
1000 / 3000 ft
1500m / 5 km
500 / 1000 ft
800 / 1500m
200 / 500 ft
< 800m
< 200 ft
Simboli :   Temporali  Nebbia  Neve Forte  Precipitazioni Forti  Vento > 20 kt
SIGMETs :   Varie  Temporali  Ghiacco  Turbolenza  Onda orograficha  Ceneri Vulcaniche






- Altitudine del aeroporto : 791 ft
- Codice IATA : KRK


EPKK - Krakow-Balice

ULTIMO METAR :
  • 290730Z 33005KT 250V360 9999 SCT016 BKN065 13/09 Q1023

METARs OBSOLETI :
  • 290700Z 31007KT 9999 FEW015 SCT043 BKN063 12/09 Q1022
  • 290630Z 32006KT 270V010 9999 FEW015 SCT040 BKN060 12/09 Q1023
  • 290600Z 31004KT 280V350 9999 BKN017 12/09 Q1022
  • 290530Z 31003KT 280V360 9999 SCT015 BKN040 12/09 Q1022
  • 290500Z 23003KT 170V280 9999 SCT012 BKN038 12/09 Q1022

TAF TAF EPKK
Valido dal 29 a 06 ore il 30 a 06 ore UTC


290530Z 2906/3006 33010KT 9999 BKN020
PROB40
TEMPO 2906/2910 3000 SHRA BKN007 BKN017CB
TEMPO 2910/2920 36015G25KT SCT020CB
BECMG 3000/3003 VRB02KT



MetMap, La meteo Aeronautica in un colpo d'occhio ! - Copyright ORBIFLY Dicembre 2007 - Disclaimer

ORBIFLY MET'MAP TEAM :

Programmazione e sviluppo : Alexandra Zaïnal
Concezione : Baudouin d'Aumeries
Aiuto per la programmazione : Marc-Olivier Méhu
Supporto tecnico e logistico : Manuel Goepfert
Aiuto per la traduzione : Arnaldo La Scala

Contatto : metmap@orbifly.com




FONTI E CREDITI :

   NOAA